Terminal Aerodrome Forecast
Issued by NWS Denver/Boulder, CO

Home | Current Version | Previous Version | Text Only | Print | Product List | Glossary On
Versions: 1 2 3 4 5 6 7 8 9 10 11 12 13 14 15 16 17 18 19 20 21 22 23 24 25 26 27 28 29 30 31 32 33 34 35 36 37 38 39 40 41 42 43 44 45 46 47 48 49 50
000
FTUS45 KBOU 210105 AAA
TAFDEN
TAF AMD
KDEN 210105Z 2101/2206 05008KT P6SM FEW070 SCT120 OVC200
     FM210230 04014KT P6SM SCT010 BKN030 OVC050
      TEMPO 2103/2106 2SM -FZDZ BR BKN008 OVC016
     FM210600 03009KT 1SM -FZDZ BR SCT004 OVC008
      TEMPO 2108/2111 1/2SM -SN FZFG OVC004
     FM211100 03014G22KT 3/4SM -SN BR OVC007
     FM211800 35017G28KT 1 1/2SM -SN BR OVC007
     FM212200 34015G25KT 3SM -SHSN BKN009 OVC016
     FM220100 35013KT P6SM VCSH SCT014 BKN030 OVC060=

USA.gov is the U.S. government's official web portal to all federal, state and local government web resources and services.